KCPU

Details ICAO KCPU
Name Calaveras Co Maury Rasmussen Fld
Region United States
Timezone America/Los_Angeles (UTC-7.0)
Plans Departing 3
Arriving 5
Stats Elevation 1,325 ft / 404 m (AMSL)
Location 38.146116° -120.648173°
Runways 1
Magnetic Variation 13.246° E
Sunrise 2018-05-26 12:45:30 UTC / 2018-05-26 05:45:30 Local
Sunset 2018-05-27 03:16:44 UTC / 2018-05-26 20:16:44 Local
Advertisement - Login to hide

Runways

ID Width Length Bearing (true) Bearing (mag) Surface Threshold Offset Overrun Length
13 60 ft / 18 m 3,605 ft / 1,099 m 145.99° 132.74° Asphalt 0 ft / 0 m 0 ft / 0 m
31 60 ft / 18 m 3,605 ft / 1,099 m 326.00° 312.75° Asphalt 0 ft / 0 m 0 ft / 0 m

Map

Weather


0- 5 10 15 20 25 30 35+ Temperature / ° C

Clouds and Precipitation
Forecast for 2018-05-26 12:00 UTC. Updated an hour ago

Ground ~20,000 ft ~40,000 ft Winds

METAR

KCPU 261210Z AUTO 00000KT 2 1/2SM BR OVC007 09/08 A3004 RMK AO2 T00880081

TAF

Not found

Frequencies

Recorded 118.52 MHz AWOS 3
Unicom 122.80 MHz CTAF/UNICOM
Warning: Do not use this data for real-world aviation or navigation. No guarantee of current accuracy is given.